Time;durP1;ratioP1;P1;durP2;ratioP2;P2;SDS_P1;SDS_P2;PMS_P1;PMS_P2;Temp;Humidity;BMP_temperature;BMP_pressure;BME280_temperature;BME280_humidity;BME280_pressure;Samples;Min_cycle;Max_cycle;Signal;HPM_P1;HPM_P2
2023/12/25 00:01:47;;;;;;;0.70;0.70;;;9.50;99.90;;;;;;4954483;28;20482;-59
2023/12/25 00:04:14;;;;;;;1.70;0.97;;;9.40;99.90;;;;;;4953915;28;21034;-60
2023/12/25 00:06:40;;;;;;;1.67;0.70;;;9.50;99.90;;;;;;4950719;28;20451;-59
2023/12/25 00:09:06;;;;;;;0.83;0.77;;;9.40;99.90;;;;;;4952441;28;21038;-60
2023/12/25 00:11:32;;;;;;;0.77;0.63;;;9.50;99.90;;;;;;4951042;29;20446;-60
2023/12/25 00:14:00;;;;;;;1.80;0.63;;;9.40;99.90;;;;;;4955224;28;20628;-59
2023/12/25 00:16:27;;;;;;;1.10;0.80;;;9.40;99.90;;;;;;4953164;29;20454;-59
2023/12/25 00:18:55;;;;;;;2.43;1.00;;;9.40;99.90;;;;;;4949379;28;20482;-60
2023/12/25 00:21:21;;;;;;;4.23;1.00;;;9.40;99.90;;;;;;4947571;28;20529;-60
2023/12/25 00:23:48;;;;;;;2.27;1.07;;;9.30;99.90;;;;;;4944855;28;20655;-60
2023/12/25 00:26:15;;;;;;;3.40;1.07;;;9.30;99.90;;;;;;4942774;28;20949;-60
2023/12/25 00:28:41;;;;;;;1.27;0.60;;;9.20;99.90;;;;;;4953652;28;20894;-59
2023/12/25 00:31:09;;;;;;;3.37;1.00;;;9.20;99.90;;;;;;4958564;28;20520;-60
2023/12/25 00:33:36;;;;;;;3.80;1.00;;;9.10;99.90;;;;;;4947966;28;20466;-60
2023/12/25 00:36:02;;;;;;;1.47;0.80;;;9.10;99.90;;;;;;4955873;28;20450;-60
2023/12/25 00:38:29;;;;;;;3.30;0.97;;;9.20;99.90;;;;;;4955311;28;20466;-59
2023/12/25 00:40:55;;;;;;;3.00;1.00;;;9.20;99.90;;;;;;4959900;28;20477;-59
2023/12/25 00:43:22;;;;;;;7.73;1.40;;;9.20;99.90;;;;;;4955599;28;20505;-59
2023/12/25 00:45:49;;;;;;;1.60;0.80;;;9.10;92.80;;;;;;4950782;28;20687;-59
2023/12/25 00:48:16;;;;;;;2.90;1.23;;;9.20;99.90;;;;;;4950297;28;20516;-60
2023/12/25 00:50:43;;;;;;;3.10;1.10;;;9.20;99.90;;;;;;4958353;28;20833;-60
2023/12/25 00:53:09;;;;;;;3.13;1.00;;;9.20;99.90;;;;;;4954881;28;20510;-60
2023/12/25 00:55:36;;;;;;;3.27;0.97;;;9.20;98.30;;;;;;4955725;28;20461;-59
2023/12/25 00:58:03;;;;;;;4.83;1.40;;;9.20;87.60;;;;;;4957216;28;20494;-60
2023/12/25 01:00:29;;;;;;;2.20;0.80;;;9.30;72.70;;;;;;4956833;28;21009;-60
2023/12/25 01:02:56;;;;;;;7.47;1.20;;;9.40;23.90;;;;;;4961748;28;20540;-59
2023/12/25 01:05:24;;;;;;;2.23;0.93;;;9.40;25.90;;;;;;4950395;28;20462;-59
2023/12/25 01:07:50;;;;;;;4.80;0.87;;;9.40;25.20;;;;;;4949060;29;20454;-59
2023/12/25 01:10:17;;;;;;;4.53;1.40;;;9.40;26.90;;;;;;4953145;28;21095;-60
2023/12/25 01:12:43;;;;;;;4.67;1.13;;;9.40;31.00;;;;;;4953426;28;20435;-59
2023/12/25 01:15:12;;;;;;;4.77;1.33;;;9.40;34.30;;;;;;4953555;28;20498;-59
2023/12/25 01:17:39;;;;;;;4.30;1.40;;;9.40;39.40;;;;;;4955651;28;20866;-59
2023/12/25 01:20:06;;;;;;;7.20;1.30;;;9.40;37.30;;;;;;4955519;28;20522;-60
2023/12/25 01:22:34;;;;;;;7.10;1.20;;;9.50;38.40;;;;;;4956264;28;21027;-60
2023/12/25 01:25:01;;;;;;;3.10;1.17;;;9.40;37.90;;;;;;4952506;28;20454;-60
2023/12/25 01:27:27;;;;;;;5.03;1.53;;;9.40;39.30;;;;;;4952485;28;20501;-60
2023/12/25 01:29:54;;;;;;;4.07;1.20;;;9.40;39.50;;;;;;4963501;28;20466;-59
2023/12/25 01:32:20;;;;;;;2.27;1.30;;;9.40;38.80;;;;;;4956810;28;20928;-59
2023/12/25 01:34:47;;;;;;;3.90;1.13;;;9.40;35.60;;;;;;4957835;28;20936;-59
2023/12/25 01:37:13;;;;;;;6.70;1.30;;;9.30;36.30;;;;;;4959618;28;20443;-59
2023/12/25 01:39:41;;;;;;;4.30;1.33;;;9.40;40.20;;;;;;4961531;28;20466;-59
2023/12/25 01:42:08;;;;;;;4.17;1.23;;;9.40;41.70;;;;;;4955681;28;20530;-59
2023/12/25 01:44:35;;;;;;;3.47;1.50;;;9.30;40.70;;;;;;4953102;28;20485;-59
2023/12/25 01:47:01;;;;;;;3.70;1.27;;;9.20;38.10;;;;;;4960960;28;20485;-59
2023/12/25 01:49:28;;;;;;;4.17;1.20;;;9.20;34.10;;;;;;4952794;28;20542;-60
2023/12/25 01:51:55;;;;;;;2.87;1.80;;;9.20;33.90;;;;;;4952557;28;20462;-60
2023/12/25 01:54:21;;;;;;;1.90;1.20;;;9.20;33.20;;;;;;4947966;28;21073;-60
2023/12/25 01:56:50;;;;;;;6.90;1.73;;;9.30;33.70;;;;;;4953494;28;20497;-60
2023/12/25 01:59:16;;;;;;;4.00;1.37;;;9.30;32.80;;;;;;4945564;28;20481;-60
2023/12/25 02:01:43;;;;;;;3.53;1.47;;;9.20;33.10;;;;;;4956729;28;20545;-59
2023/12/25 02:04:10;;;;;;;5.30;1.90;;;9.20;29.70;;;;;;4952669;28;20473;-58
2023/12/25 02:06:37;;;;;;;3.23;1.57;;;9.30;25.70;;;;;;4950788;28;20467;-59
2023/12/25 02:09:04;;;;;;;7.83;1.53;;;9.30;25.60;;;;;;4942872;28;20552;-59
2023/12/25 02:11:31;;;;;;;4.93;1.00;;;9.40;26.50;;;;;;4940969;28;20538;-59
2023/12/25 02:13:59;;;;;;;3.50;1.57;;;9.40;23.00;;;;;;4935336;28;20483;-59
2023/12/25 02:16:26;;;;;;;4.27;1.80;;;9.50;25.00;;;;;;4948407;28;20466;-60
2023/12/25 02:18:53;;;;;;;2.90;1.00;;;9.50;24.40;;;;;;4954211;28;20486;-60
2023/12/25 02:21:20;;;;;;;3.73;1.63;;;9.50;24.10;;;;;;4956583;28;20513;-60
2023/12/25 02:23:50;;;;;;;5.83;1.43;;;9.50;21.90;;;;;;4951188;28;20466;-60
2023/12/25 02:26:18;;;;;;;3.27;1.53;;;9.50;20.00;;;;;;4952967;28;20477;-59
2023/12/25 02:28:45;;;;;;;2.97;1.30;;;9.60;21.50;;;;;;4961654;28;20537;-61
2023/12/25 02:31:12;;;;;;;2.10;1.00;;;9.60;21.70;;;;;;4958877;28;20465;-59
2023/12/25 02:33:38;;;;;;;4.40;1.23;;;9.70;23.80;;;;;;4955628;28;20754;-59
2023/12/25 02:36:06;;;;;;;3.37;1.50;;;9.70;27.60;;;;;;4952528;28;20952;-60
2023/12/25 02:38:32;;;;;;;2.10;1.80;;;9.70;29.50;;;;;;4952412;28;20477;-58
2023/12/25 02:40:59;;;;;;;3.40;1.40;;;9.70;30.00;;;;;;4958951;28;20461;-59
2023/12/25 02:43:27;;;;;;;2.80;1.60;;;9.70;31.70;;;;;;4950147;28;20486;-60
2023/12/25 02:45:53;;;;;;;9.10;1.97;;;9.80;34.40;;;;;;4952546;28;20949;-59
2023/12/25 02:48:20;;;;;;;3.90;1.57;;;9.80;41.40;;;;;;4953492;28;20533;-61
2023/12/25 02:50:47;;;;;;;6.93;1.40;;;9.80;44.60;;;;;;4959352;28;20501;-60
2023/12/25 02:53:13;;;;;;;2.03;1.53;;;9.80;47.80;;;;;;4956865;28;20872;-60
2023/12/25 02:55:40;;;;;;;6.10;1.30;;;9.90;50.90;;;;;;4941112;28;20498;-60
2023/12/25 02:58:06;;;;;;;4.30;1.33;;;9.90;57.20;;;;;;4948721;28;20827;-62
2023/12/25 03:00:34;;;;;;;7.13;1.53;;;10.00;67.70;;;;;;4952886;28;20466;-59
2023/12/25 03:03:01;;;;;;;5.60;1.60;;;10.00;75.00;;;;;;4953212;28;20496;-59
2023/12/25 03:05:27;;;;;;;6.40;1.67;;;10.10;78.20;;;;;;4948982;28;21000;-60
2023/12/25 03:07:53;;;;;;;3.83;1.37;;;10.10;81.70;;;;;;4953995;28;20462;-61
2023/12/25 03:10:20;;;;;;;4.27;1.53;;;10.20;87.80;;;;;;4947835;28;20227;-60
2023/12/25 03:12:47;;;;;;;4.80;1.50;;;10.20;87.30;;;;;;4946229;28;20466;-60
2023/12/25 03:15:13;;;;;;;3.17;1.30;;;10.20;91.10;;;;;;4957246;28;20937;-60
2023/12/25 03:17:41;;;;;;;10.30;3.50;;;10.20;95.90;;;;;;4956688;28;20462;-60
2023/12/25 03:20:09;;;;;;;4.60;1.90;;;10.30;96.90;;;;;;4960772;28;20516;-61
2023/12/25 03:22:35;;;;;;;7.40;1.70;;;10.30;99.90;;;;;;4953600;28;21615;-60
2023/12/25 03:25:02;;;;;;;9.93;1.83;;;10.30;99.90;;;;;;4963435;28;20955;-60
2023/12/25 03:27:28;;;;;;;6.07;1.70;;;10.30;99.90;;;;;;4955987;28;20496;-60
2023/12/25 03:29:55;;;;;;;4.27;1.40;;;10.30;99.90;;;;;;4957560;28;21032;-60
2023/12/25 03:32:22;;;;;;;3.13;1.33;;;10.30;99.90;;;;;;4956344;28;20529;-59
2023/12/25 03:34:50;;;;;;;6.70;1.50;;;10.30;99.90;;;;;;4952475;28;20454;-60
2023/12/25 03:37:17;;;;;;;2.70;1.17;;;10.20;95.30;;;;;;4953466;28;20450;-60
2023/12/25 03:39:43;;;;;;;5.07;1.20;;;10.10;85.20;;;;;;4952533;28;20470;-59
2023/12/25 03:42:10;;;;;;;5.23;1.10;;;10.10;81.00;;;;;;4952372;28;20541;-60
2023/12/25 03:44:37;;;;;;;4.67;1.50;;;10.00;74.80;;;;;;4956199;28;20803;-59
2023/12/25 03:47:03;;;;;;;5.67;1.17;;;10.00;73.20;;;;;;4958800;28;20450;-60
2023/12/25 03:49:30;;;;;;;2.30;1.00;;;10.00;68.90;;;;;;4952566;28;20521;-60
2023/12/25 03:51:59;;;;;;;3.30;1.30;;;10.00;67.10;;;;;;4951831;29;20451;-60
2023/12/25 03:54:25;;;;;;;4.93;1.30;;;9.90;66.30;;;;;;4952497;28;20450;-60
2023/12/25 03:56:52;;;;;;;3.43;1.07;;;9.90;63.20;;;;;;4953463;28;20450;-60
2023/12/25 03:59:18;;;;;;;3.53;1.93;;;9.90;61.20;;;;;;4948948;28;20568;-60
2023/12/25 04:01:45;;;;;;;2.10;1.30;;;9.80;54.70;;;;;;4952795;28;20450;-60
2023/12/25 04:04:11;;;;;;;5.70;1.27;;;9.80;56.20;;;;;;4950963;28;20458;-59
2023/12/25 04:06:38;;;;;;;2.07;1.20;;;9.80;56.60;;;;;;4953875;28;20446;-60
2023/12/25 04:09:06;;;;;;;3.83;1.43;;;9.80;56.40;;;;;;4956415;28;20470;-60
2023/12/25 04:11:33;;;;;;;5.50;1.40;;;9.80;58.70;;;;;;4958543;28;20447;-61
2023/12/25 04:13:59;;;;;;;1.40;1.00;;;9.80;62.80;;;;;;4954507;28;20522;-60
2023/12/25 04:16:28;;;;;;;4.67;1.40;;;9.80;62.90;;;;;;4953139;28;20493;-60
2023/12/25 04:18:55;;;;;;;3.63;1.07;;;9.80;63.80;;;;;;4949715;28;20544;-59
2023/12/25 04:21:23;;;;;;;4.07;1.23;;;9.80;64.50;;;;;;4954191;28;20462;-59
2023/12/25 04:23:50;;;;;;;6.03;1.40;;;9.80;65.00;;;;;;4949400;28;20526;-61
2023/12/25 04:26:19;;;;;;;1.87;0.90;;;9.80;66.20;;;;;;4953100;28;20663;-60
2023/12/25 04:28:45;;;;;;;5.43;1.27;;;9.90;69.00;;;;;;4956525;28;20470;-61
2023/12/25 04:31:12;;;;;;;2.03;0.90;;;9.90;71.00;;;;;;4947336;29;20447;-60
2023/12/25 04:33:39;;;;;;;4.90;1.10;;;9.90;73.30;;;;;;4946791;29;20443;-59
2023/12/25 04:36:06;;;;;;;1.70;1.20;;;10.00;73.90;;;;;;4960590;28;20445;-59
2023/12/25 04:38:33;;;;;;;1.93;1.40;;;10.00;72.90;;;;;;4956269;28;20524;-59
2023/12/25 04:41:00;;;;;;;1.70;0.83;;;10.00;71.10;;;;;;4955492;28;20462;-60
2023/12/25 04:43:27;;;;;;;2.80;1.17;;;9.90;68.10;;;;;;4957335;28;20549;-60
2023/12/25 04:45:54;;;;;;;2.47;1.00;;;10.10;68.50;;;;;;4955751;28;20477;-60
2023/12/25 04:48:21;;;;;;;4.07;2.07;;;10.10;66.60;;;;;;4955121;28;20774;-60
2023/12/25 04:50:48;;;;;;;4.60;1.70;;;10.10;64.90;;;;;;4955914;28;20450;-60
2023/12/25 04:53:14;;;;;;;6.03;2.10;;;10.10;67.30;;;;;;4960538;28;20450;-60
2023/12/25 04:55:41;;;;;;;3.07;1.33;;;10.10;66.70;;;;;;4955309;28;20521;-60
2023/12/25 04:58:08;;;;;;;2.80;1.30;;;10.10;66.20;;;;;;4951134;28;20470;-60
2023/12/25 05:00:36;;;;;;;5.60;2.00;;;10.20;71.30;;;;;;4961843;28;20504;-56
2023/12/25 05:03:04;;;;;;;4.20;1.47;;;10.20;70.00;;;;;;4963389;28;20492;-56
2023/12/25 05:05:30;;;;;;;2.93;1.10;;;10.20;71.50;;;;;;4957209;28;20489;-56
2023/12/25 05:07:57;;;;;;;4.63;1.33;;;10.20;71.60;;;;;;4952124;28;20447;-56
2023/12/25 05:10:23;;;;;;;3.50;1.10;;;10.20;70.90;;;;;;4955379;28;20514;-56
2023/12/25 05:12:50;;;;;;;1.53;0.90;;;10.20;70.40;;;;;;4957397;28;20494;-56
2023/12/25 05:15:17;;;;;;;3.63;1.30;;;10.30;72.40;;;;;;4956614;28;20462;-56
2023/12/25 05:17:44;;;;;;;11.13;1.70;;;10.30;73.70;;;;;;4958849;28;21004;-56
2023/12/25 05:20:11;;;;;;;1.50;1.40;;;10.30;76.30;;;;;;4961447;28;20524;-56
2023/12/25 05:22:38;;;;;;;2.80;1.20;;;10.40;80.30;;;;;;4955089;28;20848;-56
2023/12/25 05:25:06;;;;;;;3.40;1.23;;;10.40;81.00;;;;;;4960950;28;20501;-56
2023/12/25 05:27:33;;;;;;;4.40;1.37;;;10.40;79.20;;;;;;4957208;28;20821;-56
2023/12/25 05:30:00;;;;;;;4.13;1.50;;;10.30;74.20;;;;;;4952186;28;20603;-56
2023/12/25 05:32:28;;;;;;;2.70;1.53;;;10.30;72.60;;;;;;4961403;28;20497;-56
2023/12/25 05:34:56;;;;;;;3.83;1.13;;;10.30;75.30;;;;;;4949894;28;20498;-55
2023/12/25 05:37:23;;;;;;;3.57;1.37;;;10.30;78.70;;;;;;4956226;28;20485;-55
2023/12/25 05:39:49;;;;;;;2.80;1.13;;;10.30;69.50;;;;;;4952803;28;20494;-55
2023/12/25 05:42:16;;;;;;;2.70;1.30;;;10.20;61.50;;;;;;4953868;28;21206;-55
2023/12/25 05:44:43;;;;;;;2.80;1.60;;;10.10;52.10;;;;;;4952405;28;20513;-55
2023/12/25 05:47:09;;;;;;;2.70;1.00;;;10.00;38.20;;;;;;4954441;28;20454;-55
2023/12/25 05:49:36;;;;;;;2.67;1.60;;;10.00;32.60;;;;;;4961862;28;20525;-57
2023/12/25 05:52:04;;;;;;;1.40;1.30;;;9.90;27.60;;;;;;4959993;28;20924;-57
2023/12/25 05:54:31;;;;;;;4.53;1.30;;;9.90;76.50;;;;;;4959474;28;20445;-56
2023/12/25 05:56:58;;;;;;;2.27;1.10;;;9.80;99.80;;;;;;4956477;28;20541;-56
2023/12/25 05:59:25;;;;;;;6.40;2.20;;;9.80;99.90;;;;;;4949920;28;20529;-56
2023/12/25 06:01:52;;;;;;;6.60;2.60;;;9.80;99.90;;;;;;4957596;28;20457;-55
2023/12/25 06:04:19;;;;;;;1.43;1.03;;;9.80;99.90;;;;;;4958529;28;20485;-56
2023/12/25 06:06:46;;;;;;;4.33;1.60;;;9.80;99.90;;;;;;4962795;28;20447;-55
2023/12/25 06:09:14;;;;;;;3.50;1.10;;;9.80;99.90;;;;;;4960304;28;20473;-56
2023/12/25 06:11:40;;;;;;;2.20;1.23;;;9.70;28.10;;;;;;4958885;28;20522;-55
2023/12/25 06:14:07;;;;;;;4.00;1.60;;;9.60;72.60;;;;;;4953218;28;20451;-55
2023/12/25 06:16:34;;;;;;;2.10;1.07;;;9.50;24.90;;;;;;4950900;28;21008;-55
2023/12/25 06:19:00;;;;;;;3.50;1.20;;;9.30;31.30;;;;;;4955450;28;20538;-55
2023/12/25 06:21:27;;;;;;;3.00;1.10;;;9.20;27.00;;;;;;4950947;28;21037;-55
2023/12/25 06:23:53;;;;;;;1.63;1.00;;;9.10;28.00;;;;;;4953380;28;20482;-56
2023/12/25 06:26:22;;;;;;;1.37;0.90;;;9.10;32.10;;;;;;4951907;28;20489;-56
2023/12/25 06:28:48;;;;;;;1.80;1.20;;;9.10;32.40;;;;;;4953960;28;20471;-56
2023/12/25 06:31:15;;;;;;;4.90;0.93;;;9.10;35.30;;;;;;4959352;28;20496;-55
2023/12/25 06:33:42;;;;;;;2.83;1.00;;;9.30;56.10;;;;;;4953807;28;20439;-55
2023/12/25 06:36:09;;;;;;;2.70;1.10;;;9.20;69.90;;;;;;4954092;28;20510;-56
2023/12/25 06:38:35;;;;;;;2.30;1.03;;;9.10;60.50;;;;;;4952831;28;20478;-55
2023/12/25 06:41:03;;;;;;;2.83;0.80;;;9.10;63.60;;;;;;4954193;28;20467;-57
2023/12/25 06:43:31;;;;;;;1.47;0.97;;;9.00;57.90;;;;;;4949794;28;20544;-55
2023/12/25 06:45:58;;;;;;;1.77;1.30;;;9.00;54.60;;;;;;4949321;28;20890;-55
2023/12/25 06:48:24;;;;;;;4.03;1.50;;;9.00;55.00;;;;;;4951165;28;20493;-56
2023/12/25 06:50:51;;;;;;;3.30;1.00;;;9.00;57.10;;;;;;4951596;28;20466;-55
2023/12/25 06:53:17;;;;;;;1.60;1.13;;;9.00;52.90;;;;;;4949161;28;20946;-57
2023/12/25 06:55:44;;;;;;;1.53;0.90;;;8.90;50.70;;;;;;4954706;28;20462;-55
2023/12/25 06:58:11;;;;;;;2.63;1.20;;;9.00;54.70;;;;;;4952467;28;20689;-56
2023/12/25 07:00:38;;;;;;;3.10;1.07;;;9.10;60.80;;;;;;4961221;28;21082;-56
2023/12/25 07:03:06;;;;;;;2.93;1.40;;;9.10;59.60;;;;;;4950594;28;20840;-56
2023/12/25 07:05:33;;;;;;;6.27;1.50;;;9.10;63.60;;;;;;4956234;28;20887;-56
2023/12/25 07:08:00;;;;;;;4.10;1.40;;;9.10;64.70;;;;;;4952294;28;20447;-56
2023/12/25 07:10:27;;;;;;;5.43;1.20;;;9.20;78.70;;;;;;4963425;28;20445;-57
2023/12/25 07:12:53;;;;;;;4.80;1.47;;;9.30;90.20;;;;;;4952855;28;20478;-55
2023/12/25 07:15:20;;;;;;;5.47;2.20;;;9.30;99.90;;;;;;4955880;28;20451;-56
2023/12/25 07:17:48;;;;;;;5.53;2.37;;;9.30;99.20;;;;;;4960976;28;20447;-55
2023/12/25 07:20:15;;;;;;;5.17;2.20;;;9.40;99.90;;;;;;4950423;28;20486;-55
2023/12/25 07:22:41;;;;;;;4.73;1.63;;;9.40;99.90;;;;;;4952133;28;20599;-57
2023/12/25 07:25:09;;;;;;;3.20;1.67;;;9.50;99.90;;;;;;4954323;28;20514;-56
2023/12/25 07:27:36;;;;;;;6.33;1.77;;;9.40;99.90;;;;;;4959764;28;20929;-55
2023/12/25 07:30:04;;;;;;;7.97;2.30;;;9.50;99.90;;;;;;4954896;28;20553;-55
2023/12/25 07:32:30;;;;;;;7.27;2.00;;;9.50;99.90;;;;;;4957372;28;20454;-55
2023/12/25 07:34:58;;;;;;;8.00;1.80;;;9.60;99.90;;;;;;4953286;28;20446;-55
2023/12/25 07:37:25;;;;;;;9.40;2.10;;;9.70;99.90;;;;;;4952751;28;20518;-56
2023/12/25 07:39:51;;;;;;;2.97;1.63;;;9.60;99.90;;;;;;4948440;28;20572;-56
2023/12/25 07:42:18;;;;;;;5.47;2.00;;;9.60;99.90;;;;;;4949207;28;20497;-56
2023/12/25 07:44:44;;;;;;;5.20;2.37;;;9.60;99.90;;;;;;4944206;28;20490;-55
2023/12/25 07:47:11;;;;;;;2.77;1.63;;;9.50;99.90;;;;;;4949852;28;20466;-56
2023/12/25 07:49:37;;;;;;;4.03;2.00;;;9.60;99.90;;;;;;4948721;28;20839;-56
2023/12/25 07:52:06;;;;;;;15.43;2.47;;;9.50;99.90;;;;;;4953248;28;20510;-54
2023/12/25 07:54:33;;;;;;;7.67;1.60;;;9.50;99.90;;;;;;4949065;28;20446;-54
2023/12/25 07:56:59;;;;;;;6.97;1.83;;;9.60;99.90;;;;;;4949814;29;20466;-53
2023/12/25 07:59:26;;;;;;;8.67;2.70;;;9.60;99.90;;;;;;4951723;28;21000;-53
2023/12/25 08:01:53;;;;;;;4.87;1.80;;;9.60;99.90;;;;;;4949476;28;20458;-54
2023/12/25 08:04:19;;;;;;;7.37;2.30;;;9.70;99.90;;;;;;4951017;29;20881;-53
2023/12/25 08:06:46;;;;;;;9.30;2.13;;;9.80;99.90;;;;;;4951187;29;20505;-54
2023/12/25 08:09:14;;;;;;;4.40;1.60;;;9.70;99.90;;;;;;4954313;28;20474;-53
2023/12/25 08:11:41;;;;;;;9.97;1.80;;;9.70;99.90;;;;;;4956166;28;20498;-54
2023/12/25 08:14:08;;;;;;;7.57;2.10;;;9.80;99.90;;;;;;4955686;28;20450;-53
2023/12/25 08:16:34;;;;;;;7.33;2.70;;;9.80;99.90;;;;;;4955911;28;20521;-53
2023/12/25 08:19:01;;;;;;;2.87;1.20;;;9.90;99.90;;;;;;4956191;28;20914;-54
2023/12/25 08:21:28;;;;;;;6.37;1.87;;;9.90;99.90;;;;;;4952216;28;20473;-53
2023/12/25 08:23:54;;;;;;;4.40;1.50;;;9.90;99.90;;;;;;4955192;28;20486;-54
2023/12/25 08:26:22;;;;;;;6.93;1.73;;;9.90;99.90;;;;;;4955662;28;20525;-54
2023/12/25 08:28:52;;;;;;;7.50;1.87;;;9.90;99.90;;;;;;4955306;28;20474;-53
2023/12/25 08:31:18;;;;;;;4.10;1.90;;;9.90;99.90;;;;;;4958074;28;21027;-53
2023/12/25 08:33:45;;;;;;;5.53;2.07;;;9.90;99.90;;;;;;4957501;28;20529;-52
2023/12/25 08:36:11;;;;;;;9.13;3.10;;;9.90;99.90;;;;;;4955711;28;20450;-54
2023/12/25 08:38:38;;;;;;;9.80;2.30;;;9.80;99.90;;;;;;4957044;28;20492;-53
2023/12/25 08:41:05;;;;;;;4.60;1.87;;;9.90;99.90;;;;;;4962194;28;20465;-54
2023/12/25 08:43:33;;;;;;;6.00;2.27;;;9.90;99.90;;;;;;4950535;28;20479;-54
2023/12/25 08:46:00;;;;;;;6.17;1.73;;;9.90;99.90;;;;;;4955033;28;20953;-54
2023/12/25 08:48:27;;;;;;;3.30;1.40;;;10.00;99.90;;;;;;4956799;28;20545;-53
2023/12/25 08:50:53;;;;;;;3.53;1.50;;;10.00;99.90;;;;;;4954095;28;20506;-54
2023/12/25 08:53:20;;;;;;;4.73;2.00;;;9.90;99.90;;;;;;4959407;28;20454;-52
2023/12/25 08:55:46;;;;;;;4.77;1.77;;;9.90;99.90;;;;;;4960177;28;20450;-55
2023/12/25 08:58:12;;;;;;;2.33;1.87;;;9.90;99.90;;;;;;4954689;28;21037;-53
2023/12/25 09:00:40;;;;;;;6.30;1.90;;;9.80;99.90;;;;;;4954945;28;20673;-53
2023/12/25 09:03:08;;;;;;;14.87;2.20;;;9.80;99.90;;;;;;4942326;28;20895;-53
2023/12/25 09:05:34;;;;;;;9.90;2.27;;;9.80;99.90;;;;;;4949016;29;21009;-52
2023/12/25 09:08:01;;;;;;;7.13;3.77;;;9.90;99.90;;;;;;4953407;29;20513;-52
2023/12/25 09:10:28;;;;;;;6.70;1.40;;;10.00;99.90;;;;;;4953721;28;20495;-53
2023/12/25 09:12:54;;;;;;;4.97;1.90;;;9.90;99.90;;;;;;4950754;28;20498;-54
2023/12/25 09:15:21;;;;;;;10.80;2.57;;;9.90;99.90;;;;;;4957395;28;20441;-53
2023/12/25 09:17:50;;;;;;;5.63;2.40;;;9.90;99.90;;;;;;4954146;28;20542;-54
2023/12/25 09:20:17;;;;;;;3.97;2.40;;;9.90;99.90;;;;;;4956727;28;20922;-53
2023/12/25 09:22:44;;;;;;;7.53;2.23;;;9.80;99.90;;;;;;4956314;28;20457;-53
2023/12/25 09:25:11;;;;;;;6.43;2.60;;;9.80;99.90;;;;;;4949117;28;20475;-54
2023/12/25 09:27:37;;;;;;;11.20;4.00;;;9.90;99.90;;;;;;4951327;29;20467;-54
2023/12/25 09:30:05;;;;;;;6.10;2.17;;;9.90;99.90;;;;;;4957892;28;20882;-54
2023/12/25 09:32:32;;;;;;;3.30;1.87;;;9.90;99.90;;;;;;4958278;28;20438;-54
2023/12/25 09:35:00;;;;;;;9.87;3.57;;;9.90;99.90;;;;;;4950909;28;20545;-54
2023/12/25 09:37:27;;;;;;;10.80;4.40;;;10.00;99.90;;;;;;4955871;28;20872;-54
2023/12/25 09:39:53;;;;;;;9.97;3.20;;;10.10;99.90;;;;;;4959717;28;20550;-54
2023/12/25 09:42:20;;;;;;;7.40;2.60;;;10.00;99.90;;;;;;4954263;29;20438;-54
2023/12/25 09:44:50;;;;;;;6.00;2.00;;;10.00;99.90;;;;;;4954324;28;20917;-52
2023/12/25 09:47:18;;;;;;;8.00;2.50;;;10.10;99.90;;;;;;4952849;28;20466;-53
2023/12/25 09:49:46;;;;;;;8.67;2.07;;;10.50;99.90;;;;;;4960121;28;20525;-53
2023/12/25 09:52:16;;;;;;;7.80;1.90;;;10.50;99.90;;;;;;4958438;28;20441;-53
2023/12/25 09:54:44;;;;;;;11.17;2.33;;;10.20;99.90;;;;;;4954747;28;20443;-53
2023/12/25 09:57:12;;;;;;;8.00;2.63;;;10.10;99.90;;;;;;4949847;28;20541;-54
2023/12/25 09:59:41;;;;;;;14.07;2.60;;;10.10;99.90;;;;;;4955918;28;20862;-54
2023/12/25 10:02:08;;;;;;;5.57;2.73;;;10.00;99.90;;;;;;4958546;28;20822;-53
2023/12/25 10:04:37;;;;;;;10.20;4.57;;;10.00;99.90;;;;;;4954487;28;20482;-53
2023/12/25 10:07:04;;;;;;;7.83;3.20;;;10.00;99.90;;;;;;4952908;28;20502;-52
2023/12/25 10:09:33;;;;;;;11.93;4.30;;;9.90;99.90;;;;;;4953707;28;20515;-52
2023/12/25 10:11:59;;;;;;;8.00;3.17;;;10.00;99.90;;;;;;4952975;29;20446;-54
2023/12/25 10:14:26;;;;;;;9.30;3.83;;;9.90;99.90;;;;;;4953459;29;20493;-53
2023/12/25 10:16:57;;;;;;;10.00;2.60;;;9.80;99.90;;;;;;4953553;28;20814;-52
2023/12/25 10:19:24;;;;;;;8.37;2.20;;;9.90;99.90;;;;;;4953995;28;20518;-52
2023/12/25 10:21:52;;;;;;;4.83;1.70;;;9.90;99.90;;;;;;4953843;29;20439;-55
2023/12/25 10:24:19;;;;;;;3.80;1.97;;;9.90;99.90;;;;;;4943553;28;20478;-54
2023/12/25 10:26:47;;;;;;;3.40;1.90;;;10.00;99.90;;;;;;4951439;28;20450;-55
2023/12/25 10:29:14;;;;;;;3.20;1.60;;;10.10;99.90;;;;;;4948332;28;20880;-53
2023/12/25 10:31:43;;;;;;;6.07;2.43;;;10.10;99.90;;;;;;4953949;28;20513;-53
2023/12/25 10:34:10;;;;;;;4.17;1.83;;;10.10;99.90;;;;;;4953168;28;20819;-54
2023/12/25 10:36:38;;;;;;;11.07;2.20;;;10.10;99.90;;;;;;4953081;29;20534;-53
2023/12/25 10:39:04;;;;;;;6.27;2.10;;;10.20;99.90;;;;;;4953635;28;20470;-55
2023/12/25 10:41:33;;;;;;;6.23;2.07;;;10.10;99.90;;;;;;4949993;28;22006;-52
2023/12/25 10:44:03;;;;;;;5.37;2.33;;;10.10;99.90;;;;;;4951482;29;20966;-55
2023/12/25 10:46:34;;;;;;;4.20;1.47;;;10.20;99.90;;;;;;4945917;28;20466;-54
2023/12/25 10:49:01;;;;;;;8.27;2.23;;;10.60;99.90;;;;;;4948319;28;20988;-52
2023/12/25 10:51:32;;;;;;;9.67;2.17;;;10.70;99.90;;;;;;4950710;28;20438;-53
2023/12/25 10:54:01;;;;;;;5.80;1.93;;;11.10;99.90;;;;;;4942650;28;20895;-53
2023/12/25 10:56:29;;;;;;;7.27;2.50;;;11.20;99.90;;;;;;4952132;29;20996;-53
2023/12/25 10:59:01;;;;;;;8.53;2.37;;;11.00;99.90;;;;;;4940779;28;20902;-60
2023/12/25 11:01:32;;;;;;;7.00;2.07;;;10.90;99.90;;;;;;4952649;28;20454;-59
2023/12/25 11:03:59;;;;;;;13.80;6.03;;;10.60;99.90;;;;;;4958497;28;21554;-59
2023/12/25 11:06:26;;;;;;;8.33;3.50;;;10.60;99.90;;;;;;4949678;28;20942;-59
2023/12/25 11:08:53;;;;;;;5.37;2.47;;;10.80;99.90;;;;;;4945376;28;20938;-59
2023/12/25 11:11:23;;;;;;;9.50;3.57;;;11.00;99.90;;;;;;4951152;28;20878;-59
2023/12/25 11:13:49;;;;;;;8.37;2.70;;;11.40;99.90;;;;;;4947167;28;20549;-59
2023/12/25 11:16:16;;;;;;;9.90;2.90;;;11.40;23.10;;;;;;4948797;28;20459;-58
2023/12/25 11:18:45;;;;;;;14.10;3.80;;;11.60;32.60;;;;;;4943933;28;20482;-60
2023/12/25 11:21:18;;;;;;;3.60;2.03;;;11.40;48.50;;;;;;4939102;28;20574;-60
2023/12/25 11:23:46;;;;;;;7.47;2.47;;;11.30;37.40;;;;;;4945494;28;21053;-59
2023/12/25 11:26:16;;;;;;;10.73;3.63;;;11.10;48.40;;;;;;4944486;28;20514;-58
2023/12/25 11:28:44;;;;;;;11.37;3.63;;;11.10;48.80;;;;;;4944819;28;20509;-59
2023/12/25 11:31:16;;;;;;;9.63;2.90;;;10.90;52.80;;;;;;4942614;28;20458;-60
2023/12/25 11:33:46;;;;;;;8.37;3.00;;;10.70;64.80;;;;;;4947249;28;20458;-58
2023/12/25 11:36:13;;;;;;;4.27;2.60;;;10.60;53.60;;;;;;4949799;29;20431;-59
2023/12/25 11:38:42;;;;;;;9.23;2.30;;;10.60;59.80;;;;;;4940955;28;20486;-60
2023/12/25 11:41:14;;;;;;;6.27;2.20;;;10.40;54.80;;;;;;4945280;28;20901;-58
2023/12/25 11:43:41;;;;;;;8.40;2.50;;;10.40;54.80;;;;;;4946997;28;21039;-58
2023/12/25 11:46:13;;;;;;;5.40;2.40;;;10.30;44.30;;;;;;4955234;28;20975;-59
2023/12/25 11:48:41;;;;;;;8.83;2.37;;;10.40;41.80;;;;;;4946811;28;20569;-59
2023/12/25 11:51:25;;;;;;;7.50;2.30;;;10.40;44.30;;;;;;4949159;28;20466;-59
2023/12/25 11:53:53;;;;;;;7.10;2.30;;;10.50;38.70;;;;;;4950425;29;20481;-58
2023/12/25 11:56:20;;;;;;;4.50;2.03;;;10.50;38.80;;;;;;4947320;28;20550;-60
2023/12/25 11:58:48;;;;;;;4.87;2.07;;;10.50;26.00;;;;;;4950672;28;20565;-60
2023/12/25 12:01:17;;;;;;;8.23;2.60;;;10.50;20.00;;;;;;4949798;28;20835;-59
2023/12/25 12:03:45;;;;;;;4.30;1.70;;;10.40;72.40;;;;;;4950156;28;20468;-59
2023/12/25 12:06:12;;;;;;;11.97;2.73;;;10.30;22.90;;;;;;4950028;28;20489;-59
2023/12/25 12:08:39;;;;;;;8.63;2.40;;;10.20;32.00;;;;;;4951053;28;20482;-59
2023/12/25 12:11:06;;;;;;;8.03;2.50;;;10.30;41.80;;;;;;4950972;29;20465;-59
2023/12/25 12:13:34;;;;;;;7.10;2.53;;;10.30;36.00;;;;;;4949454;28;20459;-59
2023/12/25 12:16:00;;;;;;;11.10;3.03;;;10.20;33.50;;;;;;4954787;28;20498;-59
2023/12/25 12:18:27;;;;;;;8.77;2.40;;;10.10;33.00;;;;;;4948021;28;21016;-59
2023/12/25 12:20:55;;;;;;;6.30;2.57;;;10.00;23.70;;;;;;4953971;28;20457;-59
2023/12/25 12:23:21;;;;;;;8.87;1.90;;;10.00;25.60;;;;;;4950713;28;20490;-59
2023/12/25 12:25:50;;;;;;;5.47;2.10;;;10.00;25.80;;;;;;4952737;28;20486;-59
2023/12/25 12:28:17;;;;;;;8.27;2.60;;;10.00;23.10;;;;;;4947303;28;20465;-59
2023/12/25 12:30:43;;;;;;;5.40;2.10;;;10.00;21.80;;;;;;4952850;28;21004;-59
2023/12/25 12:33:12;;;;;;;11.67;2.40;;;9.90;21.60;;;;;;4947179;28;20467;-59
2023/12/25 12:35:39;;;;;;;8.83;2.43;;;9.90;76.50;;;;;;4952639;28;20462;-59
2023/12/25 12:38:06;;;;;;;10.43;3.40;;;10.00;20.50;;;;;;4951632;28;20461;-58
2023/12/25 12:40:33;;;;;;;11.27;2.63;;;9.90;99.90;;;;;;4950840;28;20470;-58
2023/12/25 12:43:01;;;;;;;8.37;2.67;;;9.90;99.90;;;;;;4944190;28;20875;-58
2023/12/25 12:45:29;;;;;;;13.53;2.67;;;9.90;99.90;;;;;;4946897;28;20545;-58
2023/12/25 12:47:56;;;;;;;6.00;1.70;;;9.90;99.90;;;;;;4954474;28;20450;-59
2023/12/25 12:50:23;;;;;;;9.90;2.67;;;9.90;99.90;;;;;;4943560;28;23177;-58
2023/12/25 12:52:48;;;;;;;8.47;2.70;;;10.30;99.90;;;;;;4937149;28;20476;-59